Peotone Weather
Peotone-Weather Station Historical Data
Daily Summary for November 30, 2019 Units:  English    Metric   Both
Daily Weekly Monthly Yearly Custom
  High: Low: Average:
Temperature: 40.3 °F 34.9 °F 37.1 °F
Dew Point: 37.1 °F 31.2 °F 33.3 °F
Humidity: 88% 83% 86%
Wind Speed: 20.1mph 1.3mph 9.9mph
Wind Gust: 36.8mph - -
Wind- - East
Pressure: 30.16 in 29.43 in -
Precipitation: 0.23 in    
Historical Graphs
 
 
Tabular Data for November 30, 2019
Time Temperature Dew Point Pressure Wind Wind Speed Wind Gust Humidity Rainfall Rate (Hourly) solar
00:04 36.8 °F 32.1 °F 30.16 in SE 2 mph 9.2 mph 83% 0.02 in 0 W/m2
00:09 36.8 °F 32.1 °F 30.16 in SE 2.7 mph 4.6 mph 83% 0.03 in 0 W/m2
00:14 36.8 °F 32.1 °F 30.15 in SE 2.3 mph 5.8 mph 83% 0.04 in 0 W/m2
00:19 36.8 °F 32.1 °F 30.15 in SE 2.4 mph 5.8 mph 83% 0.05 in 0 W/m2
00:24 36.8 °F 32.1 °F 30.13 in ESE 2.9 mph 8.1 mph 83% 0.05 in 0 W/m2
00:29 36.7 °F 32 °F 30.11 in East 4.4 mph 8.1 mph 83% 0.05 in 0 W/m2
00:34 36.7 °F 32.2 °F 30.10 in ENE 5.2 mph 10.3 mph 83.7% 0.05 in 0 W/m2
00:39 36.6 °F 32.3 °F 30.08 in ENE 4.3 mph 10.3 mph 84% 0.05 in 0 W/m2
00:44 36.5 °F 32.2 °F 30.08 in ENE 5 mph 9.2 mph 84% 0.05 in 0 W/m2
00:49 36.5 °F 32.1 °F 30.07 in ENE 4.3 mph 9.2 mph 84% 0.05 in 0 W/m2
00:54 36.5 °F 32.1 °F 30.07 in ENE 5 mph 9.2 mph 84% 0.05 in 0 W/m2
00:59 36.4 °F 32.1 °F 30.07 in East 5.4 mph 9.2 mph 84% 0.06 in 0 W/m2
01:04 36.4 °F 32 °F 30.07 in East 6.7 mph 12.6 mph 84% 0.06 in 0 W/m2
01:09 36.4 °F 32 °F 30.08 in East 4.3 mph 12.6 mph 84% 0.06 in 0 W/m2
01:14 36.3 °F 32 °F 30.08 in ENE 2.2 mph 9.2 mph 84% 0.06 in 0 W/m2
01:19 36.3 °F 31.9 °F 30.08 in ENE 4.5 mph 10.3 mph 84% 0.05 in 0 W/m2
01:24 36.3 °F 32 °F 30.07 in ENE 5.7 mph 11.5 mph 84.2% 0.04 in 0 W/m2
01:29 36.2 °F 32.2 °F 30.07 in ENE 5.6 mph 11.5 mph 85% 0.03 in 0 W/m2
01:34 36.2 °F 32.1 °F 30.07 in ENE 4.6 mph 10.3 mph 85% 0.03 in 0 W/m2
01:39 36.2 °F 32.1 °F 30.07 in ENE 5.8 mph 10.3 mph 85% 0.03 in 0 W/m2
01:44 36.2 °F 32.1 °F 30.07 in ENE 4.4 mph 10.3 mph 85% 0.03 in 0 W/m2
01:49 36.2 °F 32.1 °F 30.07 in ENE 4.7 mph 10.3 mph 85% 0.03 in 0 W/m2
01:54 36.2 °F 32.1 °F 30.07 in ENE 4.8 mph 10.3 mph 85% 0.02 in 0 W/m2
01:59 36.2 °F 32.1 °F 30.07 in East 4.1 mph 9.2 mph 85% 0.02 in 0 W/m2
02:04 36.2 °F 32.1 °F 30.07 in ENE 5.6 mph 10.3 mph 85% 0.02 in 0 W/m2
02:09 36.2 °F 32.1 °F 30.07 in East 6.1 mph 10.3 mph 85% 0.01 in 0 W/m2
02:14 36.2 °F 32.1 °F 30.05 in East 6.5 mph 13.8 mph 85% 0.02 in 0 W/m2
02:19 36.2 °F 32.1 °F 30.05 in East 6.6 mph 13.8 mph 85% 0.02 in 0 W/m2
02:24 36.2 °F 32.1 °F 30.05 in East 8.8 mph 12.6 mph 85% 0.02 in 0 W/m2
02:29 36.2 °F 32.1 °F 30.04 in East 9.8 mph 16.1 mph 85% 0.02 in 0 W/m2
02:34 36.2 °F 32.1 °F 30.04 in East 8.8 mph 16.1 mph 85% 0.02 in 0 W/m2
02:39 36.2 °F 32.1 °F 30.04 in East 8.7 mph 16.1 mph 85% 0.02 in 0 W/m2
02:44 36.2 °F 32.1 °F 30.04 in East 8.1 mph 16.1 mph 85% 0.02 in 0 W/m2
02:49 36.2 °F 32.1 °F 30.04 in ESE 8.9 mph 16.1 mph 85% 0.01 in 0 W/m2
02:54 36.2 °F 32.1 °F 30.04 in ESE 7.5 mph 13.8 mph 85% 0.01 in 0 W/m2
02:59 36.2 °F 32.1 °F 30.04 in ESE 8.6 mph 12.6 mph 85% 0.01 in 0 W/m2
03:04 36.2 °F 32.1 °F 30.03 in ESE 8.5 mph 16.1 mph 85% 0.01 in 0 W/m2
03:09 36.2 °F 32.1 °F 30.03 in ESE 7.4 mph 16.1 mph 85% 0.01 in 0 W/m2
03:14 36.2 °F 32.1 °F 30.02 in ESE 10.3 mph 16.1 mph 85% 0.02 in 0 W/m2
03:19 36.2 °F 32.1 °F 30.01 in ESE 7.3 mph 16.1 mph 85% 0.02 in 0 W/m2
03:24 36.2 °F 32.1 °F 30.02 in ESE 6.6 mph 16.1 mph 85% 0.02 in 0 W/m2
03:29 36.2 °F 32.1 °F 30.03 in ESE 7.7 mph 16.1 mph 85% 0.03 in 0 W/m2
03:34 36.2 °F 32.1 °F 30.04 in ESE 5.3 mph 12.6 mph 85% 0.03 in 0 W/m2
03:39 36.2 °F 32.1 °F 30.05 in SE 5.1 mph 11.5 mph 85% 0.03 in 0 W/m2
03:44 36.2 °F 32.1 °F 30.05 in ESE 3.5 mph 9.2 mph 85% 0.03 in 0 W/m2
03:49 36.2 °F 32.2 °F 30.07 in ESE 1.4 mph 9.2 mph 85.2% 0.03 in 0 W/m2
03:54 36.2 °F 32.1 °F 30.07 in ESE 4 mph 9.2 mph 85% 0.04 in 0 W/m2
03:59 36.2 °F 32.2 °F 30.07 in East 4.3 mph 9.2 mph 85.2% 0.04 in 0 W/m2
04:04 36.2 °F 32.4 °F 30.05 in ESE 5.5 mph 10.3 mph 85.7% 0.04 in 0 W/m2
04:09 36.2 °F 32.4 °F 30.04 in East 5.9 mph 11.5 mph 86% 0.05 in 0 W/m2
04:14 36.3 °F 32.5 °F 30.03 in ESE 7.4 mph 11.5 mph 86% 0.05 in 0 W/m2
04:19 36.3 °F 32.5 °F 30.02 in ESE 7.2 mph 11.5 mph 86% 0.05 in 0 W/m2
04:24 36.3 °F 32.5 °F 30.02 in ESE 8.7 mph 13.8 mph 86% 0.04 in 0 W/m2
04:29 36.2 °F 32.5 °F 30.01 in ESE 8.2 mph 14.9 mph 86% 0.04 in 0 W/m2
04:34 36.2 °F 32.4 °F 30.00 in ESE 7.5 mph 14.9 mph 86% 0.04 in 0 W/m2
04:39 36.2 °F 32.4 °F 30.00 in East 7.9 mph 14.9 mph 86% 0.03 in 0 W/m2
04:44 36.2 °F 32.4 °F 29.99 in East 8.4 mph 14.9 mph 86% 0.03 in 0 W/m2
04:49 36.1 °F 32.4 °F 29.98 in East 9.1 mph 14.9 mph 86% 0.03 in 0 W/m2
04:54 36.1 °F 32.3 °F 29.96 in East 7.9 mph 17.2 mph 86% 0.03 in 0 W/m2
04:59 36 °F 32.2 °F 29.95 in East 9.3 mph 17.2 mph 86% 0.03 in 0 W/m2
05:04 36 °F 32.2 °F 29.96 in East 7.5 mph 17.2 mph 86% 0.02 in 0 W/m2
05:09 36 °F 32.2 °F 29.96 in ENE 8.2 mph 17.2 mph 86% 0.02 in 0 W/m2
05:14 36 °F 32.2 °F 29.96 in ENE 6 mph 16.1 mph 86% 0.02 in 0 W/m2
05:19 35.9 °F 32.2 °F 29.96 in ENE 6.9 mph 12.6 mph 86% 0.01 in 0 W/m2
05:24 36 °F 32.2 °F 29.97 in ENE 6.8 mph 14.9 mph 86% 0.01 in 0 W/m2
05:29 36 °F 32.2 °F 29.97 in ENE 5.8 mph 14.9 mph 86% 0.01 in 0 W/m2
05:34 35.9 °F 32.2 °F 29.98 in ENE 5.4 mph 11.5 mph 86% 0.00 in 0 W/m2
05:39 35.9 °F 32.2 °F 29.98 in ENE 7 mph 13.8 mph 86% 0.00 in 0 W/m2
05:44 36 °F 32.2 °F 29.98 in ENE 6.9 mph 13.8 mph 86% 0.00 in 0 W/m2
05:49 36 °F 32.2 °F 29.98 in ENE 7.3 mph 16.1 mph 86% 0.00 in 0 W/m2
05:54 36 °F 32.2 °F 29.97 in ENE 5.9 mph 16.1 mph 86% 0.00 in 0 W/m2
05:59 36 °F 32.2 °F 29.98 in East 7.9 mph 13.8 mph 86% 0.00 in 0 W/m2
06:04 36 °F 32.2 °F 29.98 in East 8 mph 13.8 mph 86% 0.00 in 0 W/m2
06:09 36 °F 32.2 °F 29.98 in East 6.3 mph 13.8 mph 86% 0.00 in 0 W/m2
06:14 36 °F 32.2 °F 29.98 in East 5.4 mph 12.6 mph 86% 0.00 in 0 W/m2
06:19 36 °F 32.2 °F 29.99 in East 6 mph 11.5 mph 86% 0.00 in 0 W/m2
06:24 36 °F 32.2 °F 29.99 in ENE 6.3 mph 11.5 mph 86% 0.00 in 0 W/m2
06:29 36 °F 32.2 °F 29.99 in ENE 4.6 mph 11.5 mph 86% 0.00 in 0 W/m2
06:34 36 °F 32.2 °F 29.99 in ENE 4.8 mph 11.5 mph 86% 0.00 in 0 W/m2
06:39 36 °F 32.2 °F 29.99 in ENE 5.9 mph 11.5 mph 86% 0.00 in 0 W/m2
06:44 36 °F 32.2 °F 29.99 in ENE 6.3 mph 12.6 mph 86% 0.00 in 0 W/m2
06:49 36 °F 32.2 °F 29.99 in ENE 6.5 mph 12.6 mph 86% 0.00 in 0 W/m2
06:54 36 °F 32.2 °F 29.98 in ENE 7.1 mph 13.8 mph 86% 0.00 in 0 W/m2
06:59 36 °F 32.2 °F 29.98 in East 6 mph 13.8 mph 86% 0.00 in 0 W/m2
07:04 36 °F 32.2 °F 29.97 in ENE 7.9 mph 11.5 mph 86% 0.00 in 0 W/m2
07:09 36 °F 32.2 °F 29.96 in ENE 5.9 mph 16.1 mph 86% 0.00 in 0 W/m2
07:14 36 °F 32.2 °F 29.96 in ENE 9.4 mph 19.5 mph 86% 0.00 in 0 W/m2
07:19 35.9 °F 32.1 °F 29.96 in ENE 8.3 mph 19.5 mph 86% 0.00 in 0 W/m2
07:24 35.9 °F 32.1 °F 29.95 in ENE 9.1 mph 14.9 mph 86% 0.00 in 0 W/m2
07:29 35.9 °F 32.1 °F 29.95 in ENE 9.4 mph 14.9 mph 86% 0.00 in 5 W/m2
07:34 35.9 °F 32.1 °F 29.95 in ENE 9.1 mph 13.8 mph 86% 0.00 in 5 W/m2
07:39 35.9 °F 32.1 °F 29.95 in ENE 8.4 mph 17.2 mph 86% 0.00 in 7 W/m2
07:44 35.8 °F 32.1 °F 29.94 in East 10.9 mph 17.2 mph 86% 0.00 in 7 W/m2
07:49 35.8 °F 32 °F 29.94 in East 9.2 mph 17.2 mph 86% 0.00 in 9 W/m2
07:54 35.8 °F 32 °F 29.95 in ENE 8.8 mph 16.1 mph 86% 0.00 in 9 W/m2
07:59 35.8 °F 32 °F 29.95 in East 9.9 mph 17.2 mph 86% 0.00 in 11 W/m2
08:04 35.8 °F 32 °F 29.95 in ENE 7.9 mph 17.2 mph 86% 0.00 in 11 W/m2
08:09 35.8 °F 32 °F 29.94 in East 9.4 mph 17.2 mph 86% 0.01 in 12 W/m2
08:14 35.8 °F 32 °F 29.94 in ENE 9.6 mph 19.5 mph 86% 0.01 in 12 W/m2
08:19 35.8 °F 32.1 °F 29.94 in ENE 8 mph 19.5 mph 86% 0.01 in 14 W/m2
08:24 35.8 °F 32.1 °F 29.94 in ENE 7.5 mph 19.5 mph 86% 0.01 in 14 W/m2
08:29 35.9 °F 32.1 °F 29.94 in ENE 9 mph 14.9 mph 86% 0.01 in 12 W/m2
08:34 35.8 °F 32 °F 29.94 in ENE 8.6 mph 14.9 mph 86% 0.01 in 14 W/m2
08:39 35.7 °F 32 °F 29.94 in ENE 8.4 mph 17.2 mph 86% 0.01 in 12 W/m2
08:44 35.7 °F 31.9 °F 29.94 in East 9.9 mph 17.2 mph 86% 0.01 in 14 W/m2
08:49 35.7 °F 31.9 °F 29.93 in ENE 9.3 mph 19.5 mph 86% 0.01 in 14 W/m2
08:54 35.6 °F 31.8 °F 29.93 in ENE 9.8 mph 19.5 mph 86% 0.01 in 18 W/m2
08:59 35.5 °F 31.8 °F 29.92 in ENE 10.2 mph 17.2 mph 86% 0.01 in 19 W/m2
09:04 35.4 °F 31.6 °F 29.92 in East 10.4 mph 18.4 mph 86% 0.01 in 19 W/m2
09:09 35.3 °F 31.5 °F 29.92 in ENE 10 mph 18.4 mph 86% 0.01 in 21 W/m2
09:14 35.2 °F 31.5 °F 29.91 in ENE 10.9 mph 24.1 mph 86% 0.01 in 25 W/m2
09:19 35.1 °F 31.3 °F 29.90 in ENE 11 mph 24.1 mph 86% 0.00 in 28 W/m2
09:24 35.1 °F 31.3 °F 29.90 in ENE 12.6 mph 20.7 mph 86% 0.00 in 32 W/m2
09:29 35.1 °F 31.4 °F 29.88 in ENE 13 mph 20.7 mph 86.3% 0.00 in 42 W/m2
09:34 35.1 °F 31.3 °F 29.87 in ENE 11.6 mph 20.7 mph 86% 0.00 in 37 W/m2
09:39 35 °F 31.3 °F 29.87 in ENE 10.7 mph 21.9 mph 86% 0.00 in 37 W/m2
09:44 35 °F 31.2 °F 29.85 in ENE 10.8 mph 21.9 mph 86% 0.00 in 46 W/m2
09:49 34.9 °F 31.2 °F 29.85 in ENE 12.2 mph 21.9 mph 86% 0.00 in 37 W/m2
09:54 34.9 °F 31.2 °F 29.86 in East 12 mph 21.9 mph 86% 0.00 in 32 W/m2
09:59 35 °F 31.2 °F 29.86 in East 13.8 mph 20.7 mph 86% 0.00 in 32 W/m2
10:04 35 °F 31.3 °F 29.87 in ENE 11.8 mph 23 mph 86% 0.00 in 35 W/m2
10:09 35.1 °F 31.3 °F 29.88 in East 12 mph 23 mph 86% 0.00 in 35 W/m2
10:14 35.1 °F 31.3 °F 29.89 in East 11.1 mph 21.9 mph 86% 0.00 in 26 W/m2
10:19 35.1 °F 31.3 °F 29.90 in East 9.3 mph 21.9 mph 86% 0.00 in 25 W/m2
10:24 35.1 °F 31.4 °F 29.92 in East 8.5 mph 20.7 mph 86.2% 0.00 in 21 W/m2
10:29 35.1 °F 31.4 °F 29.92 in East 7.3 mph 18.4 mph 86% 0.00 in 18 W/m2
10:34 35.2 °F 31.4 °F 29.93 in East 7.9 mph 18.4 mph 86% 0.00 in 19 W/m2
10:39 35.2 °F 31.6 °F 29.93 in East 9.6 mph 14.9 mph 86.5% 0.00 in 19 W/m2
10:44 35.3 °F 31.8 °F 29.93 in East 8.5 mph 14.9 mph 87% 0.00 in 19 W/m2
10:49 35.4 °F 31.9 °F 29.93 in East 9.1 mph 16.1 mph 87% 0.00 in 21 W/m2
10:54 35.5 °F 32 °F 29.93 in East 9.2 mph 16.1 mph 87% 0.00 in 25 W/m2
10:59 35.6 °F 32.1 °F 29.93 in East 11.3 mph 14.9 mph 87% 0.01 in 26 W/m2
11:04 35.6 °F 31.8 °F 29.92 in East 10 mph 16.1 mph 86% 0.02 in 26 W/m2
11:09 35.6 °F 31.8 °F 29.90 in East 10.2 mph 16.1 mph 86% 0.02 in 25 W/m2
11:14 35.5 °F 31.8 °F 29.87 in East 11.3 mph 18.4 mph 86% 0.03 in 32 W/m2
11:19 35.5 °F 31.7 °F 29.86 in East 10 mph 18.4 mph 86% 0.03 in 30 W/m2
11:24 35.5 °F 31.8 °F 29.86 in East 10.9 mph 16.1 mph 86.1% 0.03 in 39 W/m2
11:29 35.6 °F 32 °F 29.85 in East 9.1 mph 17.2 mph 86.7% 0.03 in 35 W/m2
11:34 35.6 °F 32.1 °F 29.85 in East 11.3 mph 19.5 mph 87% 0.04 in 33 W/m2
11:39 35.6 °F 32.2 °F 29.85 in East 9.3 mph 19.5 mph 87% 0.04 in 32 W/m2
11:44 35.7 °F 32.2 °F 29.84 in East 12 mph 19.5 mph 87% 0.04 in 33 W/m2
11:49 35.7 °F 32.2 °F 29.83 in East 11.3 mph 17.2 mph 87% 0.04 in 47 W/m2
11:54 35.8 °F 32.3 °F 29.81 in East 14.6 mph 25.3 mph 87% 0.04 in 46 W/m2
11:59 35.8 °F 32.3 °F 29.81 in East 14.2 mph 25.3 mph 87% 0.04 in 49 W/m2
12:04 35.8 °F 32.3 °F 29.81 in East 12.5 mph 25.3 mph 87% 0.04 in 39 W/m2
12:09 35.8 °F 32.3 °F 29.80 in East 13.9 mph 23 mph 87% 0.03 in 37 W/m2
12:14 35.7 °F 32.2 °F 29.80 in East 13.3 mph 27.6 mph 87% 0.02 in 46 W/m2
12:19 35.7 °F 32.2 °F 29.79 in East 16 mph 27.6 mph 87% 0.02 in 72 W/m2
12:24 35.7 °F 32.3 °F 29.78 in East 17 mph 34.5 mph 87% 0.01 in 109 W/m2
12:29 35.9 °F 32.4 °F 29.77 in East 20.1 mph 34.5 mph 87% 0.01 in 114 W/m2
12:34 36 °F 32.5 °F 29.76 in ESE 16.2 mph 28.8 mph 87% 0.01 in 98 W/m2
12:39 36.1 °F 32.6 °F 29.76 in East 15.3 mph 29.9 mph 87% 0.01 in 107 W/m2
12:44 36.2 °F 32.7 °F 29.75 in East 18.6 mph 32.2 mph 87% 0.00 in 67 W/m2
12:49 36.3 °F 32.8 °F 29.76 in East 14.6 mph 29.9 mph 87% 0.00 in 51 W/m2
12:54 36.3 °F 32.8 °F 29.76 in ESE 16.7 mph 31 mph 87% 0.00 in 56 W/m2
12:59 36.4 °F 32.9 °F 29.75 in ESE 17.6 mph 31 mph 87% 0.00 in 81 W/m2
13:04 36.5 °F 33 °F 29.74 in East 17.3 mph 34.5 mph 87% 0.00 in 116 W/m2
13:09 36.7 °F 33.2 °F 29.73 in East 19.8 mph 34.5 mph 87% 0.00 in 146 W/m2
13:14 36.8 °F 33.1 °F 29.72 in East 20 mph 32.2 mph 86.3% 0.00 in 123 W/m2
13:19 37 °F 33.2 °F 29.71 in East 19.2 mph 31 mph 86% 0.00 in 134 W/m2
13:24 37.1 °F 33.4 °F 29.71 in East 17.7 mph 36.8 mph 86.3% 0.00 in 102 W/m2
13:29 37 °F 33.3 °F 29.70 in East 17 mph 36.8 mph 86% 0.00 in 93 W/m2
13:34 37 °F 33.2 °F 29.70 in East 19.4 mph 32.2 mph 86% 0.00 in 93 W/m2
13:39 37 °F 33.2 °F 29.68 in East 17.2 mph 31 mph 86% 0.00 in 84 W/m2
13:44 37 °F 33.2 °F 29.68 in East 16.1 mph 31 mph 86% 0.00 in 72 W/m2
13:49 37 °F 33.2 °F 29.67 in East 15.9 mph 29.9 mph 86% 0.00 in 90 W/m2
13:54 37 °F 33.2 °F 29.67 in East 15.6 mph 28.8 mph 86% 0.00 in 90 W/m2
13:59 37 °F 33 °F 29.67 in East 14.4 mph 28.8 mph 85.2% 0.00 in 83 W/m2
14:04 37.1 °F 33.2 °F 29.67 in East 17.1 mph 28.8 mph 85.5% 0.00 in 83 W/m2
14:09 37.1 °F 33 °F 29.68 in East 14.7 mph 28.8 mph 85% 0.00 in 56 W/m2
14:14 37.1 °F 33.1 °F 29.69 in East 15 mph 25.3 mph 85% 0.00 in 33 W/m2
14:19 37.2 °F 33.1 °F 29.70 in East 11.8 mph 25.3 mph 85% 0.00 in 30 W/m2
14:24 37.2 °F 33.1 °F 29.71 in ESE 13.6 mph 25.3 mph 85% 0.00 in 26 W/m2
14:29 37.3 °F 33.2 °F 29.70 in ESE 13.6 mph 25.3 mph 85% 0.00 in 30 W/m2
14:34 37.3 °F 33.2 °F 29.70 in ESE 14.3 mph 21.9 mph 85% 0.00 in 25 W/m2
14:39 37.3 °F 33.2 °F 29.70 in East 12.2 mph 21.9 mph 85% 0.00 in 19 W/m2
14:44 37.3 °F 33.2 °F 29.70 in ESE 12.2 mph 20.7 mph 85% 0.00 in 14 W/m2
14:49 37.3 °F 33.2 °F 29.70 in ESE 11.6 mph 20.7 mph 85% 0.00 in 14 W/m2
14:54 37.4 °F 33.3 °F 29.70 in ESE 12.6 mph 20.7 mph 85% 0.00 in 14 W/m2
14:59 37.4 °F 33.3 °F 29.70 in ESE 11.9 mph 21.9 mph 85% 0.00 in 12 W/m2
15:04 37.4 °F 33.3 °F 29.70 in ESE 13 mph 21.9 mph 85% 0.00 in 14 W/m2
15:09 37.5 °F 33.4 °F 29.70 in ESE 11 mph 19.5 mph 85% 0.00 in 16 W/m2
15:14 37.5 °F 33.4 °F 29.70 in East 10.9 mph 19.5 mph 85% 0.00 in 19 W/m2
15:19 37.6 °F 33.5 °F 29.69 in ESE 13.2 mph 18.4 mph 85% 0.00 in 18 W/m2
15:24 37.6 °F 33.5 °F 29.69 in East 10.5 mph 18.4 mph 85% 0.00 in 11 W/m2
15:29 37.6 °F 33.5 °F 29.69 in ESE 12.4 mph 20.7 mph 85% 0.00 in 11 W/m2
15:34 37.6 °F 33.5 °F 29.68 in East 14 mph 20.7 mph 85% 0.00 in 9 W/m2
15:39 37.6 °F 33.5 °F 29.68 in East 12.6 mph 20.7 mph 85% 0.00 in 9 W/m2
15:44 37.6 °F 33.5 °F 29.67 in East 13.7 mph 21.9 mph 85% 0.00 in 7 W/m2
15:49 37.6 °F 33.5 °F 29.66 in East 13.4 mph 21.9 mph 85% 0.00 in 5 W/m2
15:54 37.6 °F 33.5 °F 29.66 in ESE 12.5 mph 20.7 mph 85% 0.00 in 0 W/m2
15:59 37.6 °F 33.5 °F 29.67 in East 13.5 mph 20.7 mph 85% 0.00 in 0 W/m2
16:04 37.6 °F 33.5 °F 29.67 in East 12.8 mph 23 mph 85% 0.00 in 0 W/m2
16:09 37.6 °F 33.5 °F 29.66 in East 13.7 mph 24.1 mph 85% 0.00 in 0 W/m2
16:14 37.6 °F 33.5 °F 29.66 in East 11.1 mph 24.1 mph 85% 0.00 in 0 W/m2
16:19 37.6 °F 33.5 °F 29.66 in East 11.9 mph 20.7 mph 85% 0.00 in 0 W/m2
16:24 37.6 °F 33.5 °F 29.65 in East 14.1 mph 21.9 mph 85% 0.00 in 0 W/m2
16:29 37.6 °F 33.5 °F 29.65 in East 13.5 mph 21.9 mph 85% 0.00 in 0 W/m2
16:34 37.6 °F 33.5 °F 29.64 in East 10.8 mph 19.5 mph 85% 0.00 in 0 W/m2
16:39 37.6 °F 33.5 °F 29.62 in East 12.5 mph 23 mph 85% 0.00 in 0 W/m2
16:44 37.6 °F 33.5 °F 29.62 in East 13 mph 27.6 mph 85% 0.00 in 0 W/m2
16:49 37.7 °F 33.6 °F 29.62 in East 14 mph 27.6 mph 85% 0.00 in 0 W/m2
16:54 37.7 °F 33.8 °F 29.62 in East 12.8 mph 27.6 mph 85.8% 0.00 in 0 W/m2
16:59 37.7 °F 33.9 °F 29.62 in East 11.8 mph 27.6 mph 86% 0.00 in 0 W/m2
17:04 37.7 °F 33.9 °F 29.61 in East 13.4 mph 18.4 mph 86% 0.00 in 0 W/m2
17:09 37.8 °F 34 °F 29.61 in East 14.4 mph 25.3 mph 86% 0.00 in 0 W/m2
17:14 37.8 °F 34 °F 29.61 in East 12.8 mph 25.3 mph 86% 0.00 in 0 W/m2
17:19 37.9 °F 34.1 °F 29.60 in East 13.5 mph 20.7 mph 86% 0.00 in 0 W/m2
17:24 37.9 °F 34.1 °F 29.60 in East 12.8 mph 27.6 mph 86% 0.00 in 0 W/m2
17:29 37.9 °F 34.1 °F 29.60 in ESE 15.6 mph 27.6 mph 86% 0.00 in 0 W/m2
17:34 38 °F 34.2 °F 29.59 in East 14.5 mph 26.4 mph 86% 0.00 in 0 W/m2
17:39 38 °F 34.2 °F 29.59 in East 13.8 mph 24.1 mph 86% 0.00 in 0 W/m2
17:44 38.1 °F 34.2 °F 29.58 in East 14.7 mph 21.9 mph 86% 0.00 in 0 W/m2
17:49 38.1 °F 34.3 °F 29.58 in East 15 mph 23 mph 86% 0.00 in 0 W/m2
17:54 38.1 °F 34.3 °F 29.57 in East 14.2 mph 23 mph 86% 0.00 in 0 W/m2
17:59 38.1 °F 34.3 °F 29.57 in East 13.2 mph 21.9 mph 86% 0.00 in 0 W/m2
18:04 38.1 °F 34.3 °F 29.57 in East 12.9 mph 19.5 mph 86% 0.00 in 0 W/m2
18:09 38.2 °F 34.4 °F 29.57 in East 14.6 mph 23 mph 86% 0.00 in 0 W/m2
18:14 38.2 °F 34.4 °F 29.56 in East 12.8 mph 23 mph 86% 0.00 in 0 W/m2
18:19 38.2 °F 34.4 °F 29.56 in East 14.7 mph 25.3 mph 86% 0.00 in 0 W/m2
18:24 38.2 °F 34.4 °F 29.56 in East 12 mph 25.3 mph 86% 0.00 in 0 W/m2
18:29 38.2 °F 34.4 °F 29.55 in East 13.9 mph 24.1 mph 86% 0.00 in 0 W/m2
18:34 38.3 °F 34.7 °F 29.55 in East 13.2 mph 24.1 mph 86.7% 0.00 in 0 W/m2
18:39 38.3 °F 34.8 °F 29.55 in East 12.9 mph 20.7 mph 87% 0.00 in 0 W/m2
18:44 38.4 °F 34.8 °F 29.55 in ESE 13.8 mph 23 mph 87% 0.00 in 0 W/m2
18:49 38.4 °F 34.9 °F 29.56 in ESE 12.3 mph 23 mph 87% 0.00 in 0 W/m2
18:54 38.4 °F 34.9 °F 29.56 in ESE 12 mph 21.9 mph 87% 0.00 in 0 W/m2
18:59 38.5 °F 35 °F 29.55 in ESE 12.4 mph 21.9 mph 87% 0.00 in 0 W/m2
19:04 38.5 °F 35 °F 29.54 in ESE 12.4 mph 21.9 mph 87% 0.00 in 0 W/m2
19:09 38.5 °F 35 °F 29.53 in East 11 mph 21.9 mph 87% 0.00 in 0 W/m2
19:14 38.6 °F 35.1 °F 29.53 in East 12.8 mph 20.7 mph 87% 0.00 in 0 W/m2
19:19 38.6 °F 35.1 °F 29.53 in East 14.1 mph 20.7 mph 87% 0.00 in 0 W/m2
19:24 38.7 °F 35.1 °F 29.53 in ESE 12.8 mph 19.5 mph 87% 0.00 in 0 W/m2
19:29 38.7 °F 35.2 °F 29.52 in ESE 13.3 mph 25.3 mph 87% 0.00 in 0 W/m2
19:34 38.7 °F 35.2 °F 29.52 in ESE 10.7 mph 25.3 mph 87% 0.00 in 0 W/m2
19:39 38.7 °F 35.2 °F 29.52 in ESE 12.6 mph 20.7 mph 87% 0.00 in 0 W/m2
19:44 38.8 °F 35.3 °F 29.51 in ESE 11.6 mph 20.7 mph 87% 0.01 in 0 W/m2
19:49 38.8 °F 35.3 °F 29.51 in ESE 14 mph 26.4 mph 87% 0.01 in 0 W/m2
19:54 38.9 °F 35.4 °F 29.51 in ESE 12.8 mph 26.4 mph 87% 0.01 in 0 W/m2
19:59 39 °F 35.4 °F 29.51 in ESE 11.1 mph 17.2 mph 87% 0.01 in 0 W/m2
20:04 39 °F 35.5 °F 29.51 in ESE 10.6 mph 18.4 mph 87% 0.01 in 0 W/m2
20:09 39 °F 35.5 °F 29.50 in ESE 12.4 mph 19.5 mph 87% 0.01 in 0 W/m2
20:14 39.1 °F 35.5 °F 29.50 in ESE 12.1 mph 20.7 mph 87% 0.01 in 0 W/m2
20:19 39.1 °F 35.6 °F 29.50 in ESE 10.9 mph 20.7 mph 87% 0.01 in 0 W/m2
20:24 39.1 °F 35.6 °F 29.50 in East 10.6 mph 18.4 mph 87% 0.01 in 0 W/m2
20:29 39.2 °F 35.6 °F 29.49 in ESE 11.5 mph 19.5 mph 87% 0.01 in 0 W/m2
20:34 39.2 °F 35.6 °F 29.49 in East 10.2 mph 19.5 mph 87% 0.01 in 0 W/m2
20:39 39.2 °F 35.7 °F 29.49 in ESE 12.8 mph 19.5 mph 87% 0.02 in 0 W/m2
20:44 39.2 °F 35.7 °F 29.49 in ESE 11 mph 18.4 mph 87% 0.02 in 0 W/m2
20:49 39.2 °F 35.7 °F 29.48 in East 10.9 mph 18.4 mph 87% 0.01 in 0 W/m2
20:54 39.3 °F 35.7 °F 29.49 in ESE 11.3 mph 19.5 mph 87% 0.01 in 0 W/m2
20:59 39.3 °F 35.8 °F 29.48 in ESE 12.2 mph 19.5 mph 87% 0.01 in 0 W/m2
21:04 39.3 °F 35.8 °F 29.48 in ESE 11.6 mph 17.2 mph 87% 0.01 in 0 W/m2
21:09 39.4 °F 35.9 °F 29.48 in ESE 10.3 mph 17.2 mph 87% 0.01 in 0 W/m2
21:14 39.5 °F 36 °F 29.48 in ESE 10.2 mph 18.4 mph 87.2% 0.01 in 0 W/m2
21:19 39.5 °F 36.2 °F 29.48 in ESE 11.4 mph 18.4 mph 87.6% 0.01 in 0 W/m2
21:24 39.6 °F 36.3 °F 29.48 in ESE 7.3 mph 18.4 mph 88% 0.02 in 0 W/m2
21:29 39.6 °F 36.3 °F 29.48 in ESE 6.3 mph 13.8 mph 87.7% 0.02 in 0 W/m2
21:34 39.7 °F 36.2 °F 29.48 in ESE 6.1 mph 13.8 mph 87.3% 0.02 in 0 W/m2
21:39 39.7 °F 36.2 °F 29.47 in ESE 9.3 mph 14.9 mph 87% 0.02 in 0 W/m2
21:44 39.7 °F 36.2 °F 29.47 in ESE 8.9 mph 17.2 mph 87.2% 0.02 in 0 W/m2
21:49 39.8 °F 36.4 °F 29.47 in ESE 8.9 mph 17.2 mph 87.8% 0.01 in 0 W/m2
21:54 39.8 °F 36.4 °F 29.47 in ESE 9.1 mph 14.9 mph 87.3% 0.01 in 0 W/m2
21:59 39.8 °F 36.4 °F 29.47 in ESE 9.6 mph 14.9 mph 87.3% 0.01 in 0 W/m2
22:04 39.9 °F 36.3 °F 29.46 in SE 9 mph 16.1 mph 87% 0.01 in 0 W/m2
22:09 39.9 °F 36.3 °F 29.46 in ESE 8.8 mph 16.1 mph 87% 0.01 in 0 W/m2
22:14 39.9 °F 36.4 °F 29.46 in ESE 5.6 mph 14.9 mph 87% 0.01 in 0 W/m2
22:19 39.9 °F 36.4 °F 29.46 in SE 5.8 mph 12.6 mph 87% 0.02 in 0 W/m2
22:24 40 °F 36.6 °F 29.46 in ESE 9.8 mph 12.6 mph 87.7% 0.02 in 0 W/m2
22:29 40 °F 36.8 °F 29.45 in ESE 10.5 mph 17.2 mph 88% 0.02 in 0 W/m2
22:34 40.1 °F 36.8 °F 29.45 in ESE 6 mph 17.2 mph 87.9% 0.01 in 0 W/m2
22:39 40.1 °F 36.6 °F 29.46 in ESE 5.1 mph 11.5 mph 87.2% 0.01 in 0 W/m2
22:44 40.1 °F 36.7 °F 29.46 in SE 3.7 mph 9.2 mph 87.5% 0.01 in 0 W/m2
22:49 40.1 °F 36.7 °F 29.46 in SE 5.7 mph 11.5 mph 87.5% 0.01 in 0 W/m2
22:54 40.1 °F 36.7 °F 29.46 in SE 6 mph 11.5 mph 87.7% 0.01 in 0 W/m2
22:59 40.1 °F 36.8 °F 29.46 in ESE 9.2 mph 14.9 mph 87.8% 0.01 in 0 W/m2
23:04 40.2 °F 36.9 °F 29.45 in ESE 7.3 mph 14.9 mph 88% 0.01 in 0 W/m2
23:09 40.2 °F 36.9 °F 29.45 in ESE 9.9 mph 16.1 mph 88% 0.01 in 0 W/m2
23:14 40.2 °F 36.9 °F 29.44 in ESE 9 mph 16.1 mph 88% 0.01 in 0 W/m2
23:19 40.2 °F 36.9 °F 29.44 in ESE 6.5 mph 16.1 mph 88% 0.01 in 0 W/m2
23:24 40.2 °F 37 °F 29.44 in East 3.9 mph 10.3 mph 88% 0.01 in 0 W/m2
23:29 40.2 °F 37 °F 29.44 in ENE 1.3 mph 9.2 mph 88% 0.00 in 0 W/m2
23:34 40.2 °F 37 °F 29.44 in ESE 2.5 mph 6.9 mph 88% 0.00 in 0 W/m2
23:39 40.2 °F 37 °F 29.43 in East 4.6 mph 9.2 mph 88% 0.00 in 0 W/m2
23:44 40.3 °F 37 °F 29.44 in ESE 4.2 mph 9.2 mph 88% 0.00 in 0 W/m2
23:49 40.3 °F 37 °F 29.44 in ESE 6.4 mph 10.3 mph 88% 0.00 in 0 W/m2
23:54 40.3 °F 37 °F 29.44 in East 6.9 mph 10.3 mph 88% 0.00 in 0 W/m2
23:59 40.3 °F 37.1 °F 29.43 in East 5.9 mph 10.3 mph 88% 0.00 in 0 W/m2
Peotne Weather
Compliments of Weather Underground - 4 mb